sensor_id;sensor_type;location;lat;lon;timestamp;temperature;humidity
18175;DHT22;9212;50.894;16.714;2023-04-01T00:04:20;8.80;99.90
18175;DHT22;9212;50.894;16.714;2023-04-01T00:11:42;8.80;99.90
18175;DHT22;9212;50.894;16.714;2023-04-01T00:14:10;8.80;99.90
18175;DHT22;9212;50.894;16.714;2023-04-01T00:16:37;8.80;99.90
18175;DHT22;9212;50.894;16.714;2023-04-01T00:21:33;8.80;99.90
18175;DHT22;9212;50.894;16.714;2023-04-01T00:24:01;8.80;99.90
18175;DHT22;9212;50.894;16.714;2023-04-01T00:26:28;8.60;99.90
18175;DHT22;9212;50.894;16.714;2023-04-01T00:28:55;8.80;99.90
18175;DHT22;9212;50.894;16.714;2023-04-01T00:31:22;8.80;99.90
18175;DHT22;9212;50.894;16.714;2023-04-01T00:33:51;9.00;99.90
18175;DHT22;9212;50.894;16.714;2023-04-01T00:36:20;8.90;99.90
18175;DHT22;9212;50.894;16.714;2023-04-01T00:38:50;9.10;99.90
18175;DHT22;9212;50.894;16.714;2023-04-01T00:41:18;8.90;99.90
18175;DHT22;9212;50.894;16.714;2023-04-01T00:43:48;9.20;99.90
18175;DHT22;9212;50.894;16.714;2023-04-01T00:46:16;9.00;99.90
18175;DHT22;9212;50.894;16.714;2023-04-01T00:48:45;9.10;99.90
18175;DHT22;9212;50.894;16.714;2023-04-01T00:51:16;9.80;99.90
18175;DHT22;9212;50.894;16.714;2023-04-01T00:53:46;9.00;99.90
18175;DHT22;9212;50.894;16.714;2023-04-01T00:56:18;9.00;99.90
18175;DHT22;9212;50.894;16.714;2023-04-01T00:58:48;8.80;99.90
18175;DHT22;9212;50.894;16.714;2023-04-01T01:06:22;9.00;99.90
18175;DHT22;9212;50.894;16.714;2023-04-01T01:09:07;9.10;99.90
18175;DHT22;9212;50.894;16.714;2023-04-01T01:11:42;8.80;99.90
18175;DHT22;9212;50.894;16.714;2023-04-01T01:14:23;8.20;99.90
18175;DHT22;9212;50.894;16.714;2023-04-01T01:16:54;9.00;99.90
18175;DHT22;9212;50.894;16.714;2023-04-01T01:19:52;10.00;99.90
18175;DHT22;9212;50.894;16.714;2023-04-01T01:22:43;9.70;99.90
18175;DHT22;9212;50.894;16.714;2023-04-01T01:25:21;9.00;99.90
18175;DHT22;9212;50.894;16.714;2023-04-01T01:27:58;8.80;99.90
18175;DHT22;9212;50.894;16.714;2023-04-01T01:30:42;10.00;99.90
18175;DHT22;9212;50.894;16.714;2023-04-01T01:33:24;9.20;99.90
18175;DHT22;9212;50.894;16.714;2023-04-01T01:35:59;9.10;99.90
18175;DHT22;9212;50.894;16.714;2023-04-01T01:38:31;8.80;99.90
18175;DHT22;9212;50.894;16.714;2023-04-01T01:41:00;9.10;99.90
18175;DHT22;9212;50.894;16.714;2023-04-01T01:43:30;8.60;99.90
18175;DHT22;9212;50.894;16.714;2023-04-01T01:46:00;9.20;99.90
18175;DHT22;9212;50.894;16.714;2023-04-01T01:48:31;8.90;99.90
18175;DHT22;9212;50.894;16.714;2023-04-01T01:51:01;8.90;99.90
18175;DHT22;9212;50.894;16.714;2023-04-01T01:53:29;8.80;99.90
18175;DHT22;9212;50.894;16.714;2023-04-01T01:55:56;8.90;99.90
18175;DHT22;9212;50.894;16.714;2023-04-01T01:58:26;9.00;99.90
18175;DHT22;9212;50.894;16.714;2023-04-01T02:00:56;9.00;99.90
18175;DHT22;9212;50.894;16.714;2023-04-01T02:03:25;10.00;99.90
18175;DHT22;9212;50.894;16.714;2023-04-01T02:05:56;9.00;99.90
18175;DHT22;9212;50.894;16.714;2023-04-01T02:08:28;9.00;99.90
18175;DHT22;9212;50.894;16.714;2023-04-01T02:10:58;8.80;99.90
18175;DHT22;9212;50.894;16.714;2023-04-01T02:13:31;8.90;99.90
18175;DHT22;9212;50.894;16.714;2023-04-01T02:16:01;9.30;99.90
18175;DHT22;9212;50.894;16.714;2023-04-01T02:18:31;9.50;99.90
18175;DHT22;9212;50.894;16.714;2023-04-01T02:23:29;8.90;99.90
18175;DHT22;9212;50.894;16.714;2023-04-01T02:25:56;8.70;99.90
18175;DHT22;9212;50.894;16.714;2023-04-01T02:28:23;9.20;99.90
18175;DHT22;9212;50.894;16.714;2023-04-01T02:30:52;9.00;99.90
18175;DHT22;9212;50.894;16.714;2023-04-01T02:33:19;9.10;99.90
18175;DHT22;9212;50.894;16.714;2023-04-01T02:38:15;9.90;99.90
18175;DHT22;9212;50.894;16.714;2023-04-01T02:40:45;9.20;99.90
18175;DHT22;9212;50.894;16.714;2023-04-01T02:43:13;8.50;99.90
18175;DHT22;9212;50.894;16.714;2023-04-01T02:45:40;8.50;99.90
18175;DHT22;9212;50.894;16.714;2023-04-01T02:48:07;9.10;99.90
18175;DHT22;9212;50.894;16.714;2023-04-01T02:55:31;9.80;99.90
18175;DHT22;9212;50.894;16.714;2023-04-01T02:58:00;9.10;99.90
18175;DHT22;9212;50.894;16.714;2023-04-01T03:00:27;8.40;99.90
18175;DHT22;9212;50.894;16.714;2023-04-01T03:02:54;8.30;99.90
18175;DHT22;9212;50.894;16.714;2023-04-01T03:05:22;8.70;99.90
18175;DHT22;9212;50.894;16.714;2023-04-01T03:10:16;8.90;99.90
18175;DHT22;9212;50.894;16.714;2023-04-01T03:15:13;8.50;99.90
18175;DHT22;9212;50.894;16.714;2023-04-01T03:17:41;9.70;99.90
18175;DHT22;9212;50.894;16.714;2023-04-01T03:20:09;9.00;99.90
18175;DHT22;9212;50.894;16.714;2023-04-01T03:22:36;8.40;99.90
18175;DHT22;9212;50.894;16.714;2023-04-01T03:25:05;8.50;99.90
18175;DHT22;9212;50.894;16.714;2023-04-01T03:27:33;9.70;99.90
18175;DHT22;9212;50.894;16.714;2023-04-01T03:32:29;8.80;99.90
18175;DHT22;9212;50.894;16.714;2023-04-01T03:34:56;9.20;99.90
18175;DHT22;9212;50.894;16.714;2023-04-01T03:37:23;8.80;99.90
18175;DHT22;9212;50.894;16.714;2023-04-01T03:39:51;8.40;99.90
18175;DHT22;9212;50.894;16.714;2023-04-01T03:42:18;9.00;99.90
18175;DHT22;9212;50.894;16.714;2023-04-01T03:44:45;8.60;99.90
18175;DHT22;9212;50.894;16.714;2023-04-01T03:47:12;8.20;99.90
18175;DHT22;9212;50.894;16.714;2023-04-01T03:49:40;8.40;99.90
18175;DHT22;9212;50.894;16.714;2023-04-01T03:52:09;8.50;99.90
18175;DHT22;9212;50.894;16.714;2023-04-01T03:54:37;9.50;99.90
18175;DHT22;9212;50.894;16.714;2023-04-01T03:57:04;8.60;99.90
18175;DHT22;9212;50.894;16.714;2023-04-01T03:59:31;8.50;99.90
18175;DHT22;9212;50.894;16.714;2023-04-01T04:01:58;8.00;99.90
18175;DHT22;9212;50.894;16.714;2023-04-01T04:06:55;8.60;99.90
18175;DHT22;9212;50.894;16.714;2023-04-01T04:11:50;8.10;99.90
18175;DHT22;9212;50.894;16.714;2023-04-01T04:14:17;8.20;99.90
18175;DHT22;9212;50.894;16.714;2023-04-01T04:16:44;8.20;99.90
18175;DHT22;9212;50.894;16.714;2023-04-01T04:19:11;8.40;99.90
18175;DHT22;9212;50.894;16.714;2023-04-01T04:21:39;8.40;99.90
18175;DHT22;9212;50.894;16.714;2023-04-01T04:24:08;8.40;99.90
18175;DHT22;9212;50.894;16.714;2023-04-01T04:29:02;8.40;99.90
18175;DHT22;9212;50.894;16.714;2023-04-01T04:33:58;8.60;99.90
18175;DHT22;9212;50.894;16.714;2023-04-01T04:36:25;8.40;99.90
18175;DHT22;9212;50.894;16.714;2023-04-01T04:38:52;9.50;99.90
18175;DHT22;9212;50.894;16.714;2023-04-01T04:41:21;8.30;99.90
18175;DHT22;9212;50.894;16.714;2023-04-01T04:43:50;8.60;99.90
18175;DHT22;9212;50.894;16.714;2023-04-01T04:51:14;8.40;99.90
18175;DHT22;9212;50.894;16.714;2023-04-01T04:53:42;8.40;99.90
18175;DHT22;9212;50.894;16.714;2023-04-01T04:58:39;8.50;99.90
18175;DHT22;9212;50.894;16.714;2023-04-01T05:01:07;8.60;99.90
18175;DHT22;9212;50.894;16.714;2023-04-01T05:03:35;8.30;99.90
18175;DHT22;9212;50.894;16.714;2023-04-01T05:08:29;8.40;99.90
18175;DHT22;9212;50.894;16.714;2023-04-01T05:10:56;8.60;99.90
18175;DHT22;9212;50.894;16.714;2023-04-01T05:13:23;8.70;99.90
18175;DHT22;9212;50.894;16.714;2023-04-01T05:18:19;8.40;99.90
18175;DHT22;9212;50.894;16.714;2023-04-01T05:20:47;8.50;99.90
18175;DHT22;9212;50.894;16.714;2023-04-01T05:23:14;8.60;99.90
18175;DHT22;9212;50.894;16.714;2023-04-01T05:33:04;8.80;99.90
18175;DHT22;9212;50.894;16.714;2023-04-01T05:35:31;8.60;99.90
18175;DHT22;9212;50.894;16.714;2023-04-01T05:37:58;8.50;99.90
18175;DHT22;9212;50.894;16.714;2023-04-01T05:40:25;8.10;99.90
18175;DHT22;9212;50.894;16.714;2023-04-01T05:47:49;8.90;99.90
18175;DHT22;9212;50.894;16.714;2023-04-01T05:57:40;8.90;99.90
18175;DHT22;9212;50.894;16.714;2023-04-01T06:00:08;8.60;99.90
18175;DHT22;9212;50.894;16.714;2023-04-01T06:02:35;8.10;99.90
18175;DHT22;9212;50.894;16.714;2023-04-01T06:07:40;8.80;99.90
18175;DHT22;9212;50.894;16.714;2023-04-01T06:10:13;8.80;99.90
18175;DHT22;9212;50.894;16.714;2023-04-01T06:12:48;8.90;99.90
18175;DHT22;9212;50.894;16.714;2023-04-01T06:24:37;8.90;99.90
18175;DHT22;9212;50.894;16.714;2023-04-01T06:27:16;8.80;99.90
18175;DHT22;9212;50.894;16.714;2023-04-01T06:30:05;8.80;99.90
18175;DHT22;9212;50.894;16.714;2023-04-01T06:32:53;8.80;99.90
18175;DHT22;9212;50.894;16.714;2023-04-01T06:35:36;8.80;99.90
18175;DHT22;9212;50.894;16.714;2023-04-01T06:38:29;8.70;99.90
18175;DHT22;9212;50.894;16.714;2023-04-01T06:46:34;8.80;99.90
18175;DHT22;9212;50.894;16.714;2023-04-01T06:49:19;9.60;99.90
18175;DHT22;9212;50.894;16.714;2023-04-01T06:51:51;8.90;99.90
18175;DHT22;9212;50.894;16.714;2023-04-01T06:54:23;8.90;99.90
18175;DHT22;9212;50.894;16.714;2023-04-01T06:56:54;9.00;99.90
18175;DHT22;9212;50.894;16.714;2023-04-01T06:59:26;9.00;99.90
18175;DHT22;9212;50.894;16.714;2023-04-01T07:01:55;9.10;99.90
18175;DHT22;9212;50.894;16.714;2023-04-01T07:04:26;9.10;99.90
18175;DHT22;9212;50.894;16.714;2023-04-01T07:06:58;9.20;99.90
18175;DHT22;9212;50.894;16.714;2023-04-01T07:09:28;9.20;99.90
18175;DHT22;9212;50.894;16.714;2023-04-01T07:12:02;9.20;99.90
18175;DHT22;9212;50.894;16.714;2023-04-01T07:14:36;9.20;99.90
18175;DHT22;9212;50.894;16.714;2023-04-01T07:17:07;9.20;99.90
18175;DHT22;9212;50.894;16.714;2023-04-01T07:19:41;9.30;99.90
18175;DHT22;9212;50.894;16.714;2023-04-01T07:22:19;9.30;99.90
18175;DHT22;9212;50.894;16.714;2023-04-01T07:24:50;9.20;99.90
18175;DHT22;9212;50.894;16.714;2023-04-01T07:27:19;9.30;99.90
18175;DHT22;9212;50.894;16.714;2023-04-01T07:29:47;9.40;99.90
18175;DHT22;9212;50.894;16.714;2023-04-01T07:32:22;9.40;99.90
18175;DHT22;9212;50.894;16.714;2023-04-01T07:35:13;9.80;99.90
18175;DHT22;9212;50.894;16.714;2023-04-01T07:37:53;9.50;99.90
18175;DHT22;9212;50.894;16.714;2023-04-01T07:40:30;9.60;99.90
18175;DHT22;9212;50.894;16.714;2023-04-01T07:43:26;9.70;99.90
18175;DHT22;9212;50.894;16.714;2023-04-01T07:46:13;9.70;99.90
18175;DHT22;9212;50.894;16.714;2023-04-01T07:48:50;9.80;99.90
18175;DHT22;9212;50.894;16.714;2023-04-01T07:51:23;9.90;99.90
18175;DHT22;9212;50.894;16.714;2023-04-01T07:53:59;9.90;99.90
18175;DHT22;9212;50.894;16.714;2023-04-01T07:56:33;10.00;99.90
18175;DHT22;9212;50.894;16.714;2023-04-01T07:59:07;10.10;99.90
18175;DHT22;9212;50.894;16.714;2023-04-01T17:03:12;10.40;99.90
18175;DHT22;9212;50.894;16.714;2023-04-01T17:05:58;10.90;99.90
18175;DHT22;9212;50.894;16.714;2023-04-01T17:08:44;10.40;99.90
18175;DHT22;9212;50.894;16.714;2023-04-01T17:11:19;10.40;99.90
18175;DHT22;9212;50.894;16.714;2023-04-01T17:13:54;10.40;99.90
18175;DHT22;9212;50.894;16.714;2023-04-01T17:16:44;10.40;99.90
18175;DHT22;9212;50.894;16.714;2023-04-01T17:19:24;10.20;99.90
18175;DHT22;9212;50.894;16.714;2023-04-01T17:22:01;10.10;99.90
18175;DHT22;9212;50.894;16.714;2023-04-01T17:24:54;10.20;99.90
18175;DHT22;9212;50.894;16.714;2023-04-01T17:27:34;10.10;99.90
18175;DHT22;9212;50.894;16.714;2023-04-01T17:30:16;10.50;99.90
18175;DHT22;9212;50.894;16.714;2023-04-01T17:32:56;10.00;99.90
18175;DHT22;9212;50.894;16.714;2023-04-01T17:35:32;10.00;99.90
18175;DHT22;9212;50.894;16.714;2023-04-01T17:38:11;10.00;99.90
18175;DHT22;9212;50.894;16.714;2023-04-01T17:40:52;9.50;99.90
18175;DHT22;9212;50.894;16.714;2023-04-01T17:43:30;9.10;99.90
18175;DHT22;9212;50.894;16.714;2023-04-01T17:46:02;9.80;99.90
18175;DHT22;9212;50.894;16.714;2023-04-01T17:48:41;9.80;99.90
18175;DHT22;9212;50.894;16.714;2023-04-01T17:51:20;9.80;99.90
18175;DHT22;9212;50.894;16.714;2023-04-01T17:53:56;9.80;99.90
18175;DHT22;9212;50.894;16.714;2023-04-01T17:56:34;9.60;99.90
18175;DHT22;9212;50.894;16.714;2023-04-01T17:59:07;9.70;99.90
18175;DHT22;9212;50.894;16.714;2023-04-01T18:01:48;9.50;99.90
18175;DHT22;9212;50.894;16.714;2023-04-01T18:04:42;9.70;99.90
18175;DHT22;9212;50.894;16.714;2023-04-01T18:07:48;9.50;99.90
18175;DHT22;9212;50.894;16.714;2023-04-01T18:10:26;9.40;99.90
18175;DHT22;9212;50.894;16.714;2023-04-01T18:13:33;9.70;99.90
18175;DHT22;9212;50.894;16.714;2023-04-01T18:16:18;9.50;99.90
18175;DHT22;9212;50.894;16.714;2023-04-01T18:18:55;9.40;99.90
18175;DHT22;9212;50.894;16.714;2023-04-01T18:21:31;9.00;99.90
18175;DHT22;9212;50.894;16.714;2023-04-01T18:24:14;9.40;99.90
18175;DHT22;9212;50.894;16.714;2023-04-01T18:26:45;9.40;99.90
18175;DHT22;9212;50.894;16.714;2023-04-01T18:29:26;8.80;99.90
18175;DHT22;9212;50.894;16.714;2023-04-01T18:32:11;9.90;99.90
18175;DHT22;9212;50.894;16.714;2023-04-01T18:34:50;8.90;99.90
18175;DHT22;9212;50.894;16.714;2023-04-01T18:37:25;9.90;99.90
18175;DHT22;9212;50.894;16.714;2023-04-01T18:40:00;9.40;99.90
18175;DHT22;9212;50.894;16.714;2023-04-01T18:42:41;9.20;99.90
18175;DHT22;9212;50.894;16.714;2023-04-01T18:45:17;9.10;99.90
18175;DHT22;9212;50.894;16.714;2023-04-01T18:47:54;8.80;99.90
18175;DHT22;9212;50.894;16.714;2023-04-01T18:50:26;8.90;99.90
18175;DHT22;9212;50.894;16.714;2023-04-01T18:52:58;9.10;99.90
18175;DHT22;9212;50.894;16.714;2023-04-01T18:55:36;9.30;99.90
18175;DHT22;9212;50.894;16.714;2023-04-01T18:58:22;9.70;99.90
18175;DHT22;9212;50.894;16.714;2023-04-01T19:01:12;8.90;99.90
18175;DHT22;9212;50.894;16.714;2023-04-01T19:03:48;9.00;99.90
18175;DHT22;9212;50.894;16.714;2023-04-01T19:06:23;9.10;99.90
18175;DHT22;9212;50.894;16.714;2023-04-01T19:08:54;9.00;99.90
18175;DHT22;9212;50.894;16.714;2023-04-01T19:11:29;9.00;99.90
18175;DHT22;9212;50.894;16.714;2023-04-01T19:14:06;9.10;99.90
18175;DHT22;9212;50.894;16.714;2023-04-01T19:16:46;9.00;99.90
18175;DHT22;9212;50.894;16.714;2023-04-01T19:19:29;9.20;99.90
18175;DHT22;9212;50.894;16.714;2023-04-01T19:22:11;9.00;99.90
18175;DHT22;9212;50.894;16.714;2023-04-01T19:24:53;9.60;99.90
18175;DHT22;9212;50.894;16.714;2023-04-01T19:27:39;9.70;99.90
18175;DHT22;9212;50.894;16.714;2023-04-01T19:30:19;8.70;99.90
18175;DHT22;9212;50.894;16.714;2023-04-01T19:32:55;9.00;99.90
18175;DHT22;9212;50.894;16.714;2023-04-01T19:35:35;9.10;99.90
18175;DHT22;9212;50.894;16.714;2023-04-01T19:38:12;9.20;99.90
18175;DHT22;9212;50.894;16.714;2023-04-01T19:40:54;8.90;99.90
18175;DHT22;9212;50.894;16.714;2023-04-01T19:43:44;8.90;99.90
18175;DHT22;9212;50.894;16.714;2023-04-01T19:46:21;8.70;99.90
18175;DHT22;9212;50.894;16.714;2023-04-01T19:49:09;8.50;99.90
18175;DHT22;9212;50.894;16.714;2023-04-01T19:51:45;8.80;99.90
18175;DHT22;9212;50.894;16.714;2023-04-01T19:54:24;8.80;99.90
18175;DHT22;9212;50.894;16.714;2023-04-01T19:56:58;8.80;99.90
18175;DHT22;9212;50.894;16.714;2023-04-01T19:59:31;8.90;99.90
18175;DHT22;9212;50.894;16.714;2023-04-01T20:02:13;8.80;99.90
18175;DHT22;9212;50.894;16.714;2023-04-01T20:04:49;9.00;99.90
18175;DHT22;9212;50.894;16.714;2023-04-01T20:07:23;9.00;99.90
18175;DHT22;9212;50.894;16.714;2023-04-01T20:09:57;9.00;99.90
18175;DHT22;9212;50.894;16.714;2023-04-01T20:12:35;9.00;99.90
18175;DHT22;9212;50.894;16.714;2023-04-01T20:15:22;9.70;99.90
18175;DHT22;9212;50.894;16.714;2023-04-01T20:17:52;9.00;99.90
18175;DHT22;9212;50.894;16.714;2023-04-01T20:20:21;9.00;99.90
18175;DHT22;9212;50.894;16.714;2023-04-01T20:23:01;8.70;99.90
18175;DHT22;9212;50.894;16.714;2023-04-01T20:25:32;9.00;99.90
18175;DHT22;9212;50.894;16.714;2023-04-01T20:28:05;9.00;99.90
18175;DHT22;9212;50.894;16.714;2023-04-01T20:34:06;8.90;99.90
18175;DHT22;9212;50.894;16.714;2023-04-01T20:36:49;9.00;99.90
18175;DHT22;9212;50.894;16.714;2023-04-01T20:42:05;8.60;99.90
18175;DHT22;9212;50.894;16.714;2023-04-01T20:44:41;8.70;99.90
18175;DHT22;9212;50.894;16.714;2023-04-01T20:47:21;9.30;99.90
18175;DHT22;9212;50.894;16.714;2023-04-01T20:50:00;8.60;99.90
18175;DHT22;9212;50.894;16.714;2023-04-01T20:52:39;8.10;99.90
18175;DHT22;9212;50.894;16.714;2023-04-01T20:58:13;8.50;99.90
18175;DHT22;9212;50.894;16.714;2023-04-01T21:00:55;8.50;99.90
18175;DHT22;9212;50.894;16.714;2023-04-01T21:03:34;8.50;99.90
18175;DHT22;9212;50.894;16.714;2023-04-01T21:06:40;8.40;99.90
18175;DHT22;9212;50.894;16.714;2023-04-01T21:12:22;8.20;99.90
18175;DHT22;9212;50.894;16.714;2023-04-01T21:14:59;8.10;99.90
18175;DHT22;9212;50.894;16.714;2023-04-01T21:17:38;8.10;99.90
18175;DHT22;9212;50.894;16.714;2023-04-01T21:20:22;7.80;99.90
18175;DHT22;9212;50.894;16.714;2023-04-01T21:23:06;8.10;99.90
18175;DHT22;9212;50.894;16.714;2023-04-01T21:25:54;7.90;99.90
18175;DHT22;9212;50.894;16.714;2023-04-01T21:28:35;8.00;99.90
18175;DHT22;9212;50.894;16.714;2023-04-01T21:31:21;8.00;99.90
18175;DHT22;9212;50.894;16.714;2023-04-01T21:34:05;8.00;99.90
18175;DHT22;9212;50.894;16.714;2023-04-01T21:36:48;8.00;99.90
18175;DHT22;9212;50.894;16.714;2023-04-01T21:42:14;7.90;99.90
18175;DHT22;9212;50.894;16.714;2023-04-01T21:44:52;7.70;99.90
18175;DHT22;9212;50.894;16.714;2023-04-01T21:50:46;7.80;99.90
18175;DHT22;9212;50.894;16.714;2023-04-01T21:59:47;8.60;99.90
18175;DHT22;9212;50.894;16.714;2023-04-01T22:02:59;7.80;99.90
18175;DHT22;9212;50.894;16.714;2023-04-01T22:05:31;7.70;99.90
18175;DHT22;9212;50.894;16.714;2023-04-01T22:08:06;7.80;99.90
18175;DHT22;9212;50.894;16.714;2023-04-01T22:10:49;7.80;99.90
18175;DHT22;9212;50.894;16.714;2023-04-01T22:13:25;7.80;99.90
18175;DHT22;9212;50.894;16.714;2023-04-01T22:16:00;8.90;99.90
18175;DHT22;9212;50.894;16.714;2023-04-01T22:21:06;7.60;99.90
18175;DHT22;9212;50.894;16.714;2023-04-01T22:23:39;7.60;99.90
18175;DHT22;9212;50.894;16.714;2023-04-01T22:26:13;7.40;99.90
18175;DHT22;9212;50.894;16.714;2023-04-01T22:28:47;7.50;99.90
18175;DHT22;9212;50.894;16.714;2023-04-01T22:31:21;7.50;99.90
18175;DHT22;9212;50.894;16.714;2023-04-01T22:33:58;7.50;99.90
18175;DHT22;9212;50.894;16.714;2023-04-01T22:36:33;7.50;99.90
18175;DHT22;9212;50.894;16.714;2023-04-01T22:39:22;7.50;99.90
18175;DHT22;9212;50.894;16.714;2023-04-01T22:42:01;7.80;99.90
18175;DHT22;9212;50.894;16.714;2023-04-01T22:44:47;6.90;99.90
18175;DHT22;9212;50.894;16.714;2023-04-01T22:47:22;7.40;99.90
18175;DHT22;9212;50.894;16.714;2023-04-01T22:49:56;8.30;99.90
18175;DHT22;9212;50.894;16.714;2023-04-01T22:52:30;7.50;99.90
18175;DHT22;9212;50.894;16.714;2023-04-01T22:55:00;7.50;99.90
18175;DHT22;9212;50.894;16.714;2023-04-01T22:57:42;7.40;99.90
18175;DHT22;9212;50.894;16.714;2023-04-01T23:00:17;7.20;99.90
18175;DHT22;9212;50.894;16.714;2023-04-01T23:02:59;7.30;99.90
18175;DHT22;9212;50.894;16.714;2023-04-01T23:07:59;7.20;99.90
18175;DHT22;9212;50.894;16.714;2023-04-01T23:10:33;7.20;99.90
18175;DHT22;9212;50.894;16.714;2023-04-01T23:13:04;6.40;99.90
18175;DHT22;9212;50.894;16.714;2023-04-01T23:15:37;6.50;99.90
18175;DHT22;9212;50.894;16.714;2023-04-01T23:18:20;7.10;99.90
18175;DHT22;9212;50.894;16.714;2023-04-01T23:21:08;7.10;99.90
18175;DHT22;9212;50.894;16.714;2023-04-01T23:23:48;5.20;99.90
18175;DHT22;9212;50.894;16.714;2023-04-01T23:26:21;6.50;99.90
18175;DHT22;9212;50.894;16.714;2023-04-01T23:28:52;6.40;99.90
18175;DHT22;9212;50.894;16.714;2023-04-01T23:31:30;7.80;99.90
18175;DHT22;9212;50.894;16.714;2023-04-01T23:33:59;6.90;99.90
18175;DHT22;9212;50.894;16.714;2023-04-01T23:36:27;7.10;99.90
18175;DHT22;9212;50.894;16.714;2023-04-01T23:41:26;6.90;99.90
18175;DHT22;9212;50.894;16.714;2023-04-01T23:43:56;6.10;99.90
18175;DHT22;9212;50.894;16.714;2023-04-01T23:46:26;6.80;99.90
18175;DHT22;9212;50.894;16.714;2023-04-01T23:51:26;6.80;99.90
18175;DHT22;9212;50.894;16.714;2023-04-01T23:54:00;6.80;99.90
18175;DHT22;9212;50.894;16.714;2023-04-01T23:56:36;7.20;99.90
